sensor_id;sensor_type;location;lat;lon;timestamp;P1;durP1;ratioP1;P2;durP2;ratioP2
28629;SDS011;15817;42.130;24.762;2022-10-01T00:01:21;20.88;;;5.13;;
28629;SDS011;15817;42.130;24.762;2022-10-01T00:03:47;17.40;;;4.85;;
28629;SDS011;15817;42.130;24.762;2022-10-01T00:06:14;9.77;;;4.63;;
28629;SDS011;15817;42.130;24.762;2022-10-01T00:08:46;13.70;;;4.57;;
28629;SDS011;15817;42.130;24.762;2022-10-01T00:11:20;14.48;;;5.18;;
28629;SDS011;15817;42.130;24.762;2022-10-01T00:13:49;13.93;;;4.97;;
28629;SDS011;15817;42.130;24.762;2022-10-01T00:16:17;14.73;;;4.97;;
28629;SDS011;15817;42.130;24.762;2022-10-01T00:18:49;13.25;;;5.47;;
28629;SDS011;15817;42.130;24.762;2022-10-01T00:21:22;11.90;;;5.13;;
28629;SDS011;15817;42.130;24.762;2022-10-01T00:23:53;12.02;;;4.75;;
28629;SDS011;15817;42.130;24.762;2022-10-01T00:26:29;11.73;;;4.72;;
28629;SDS011;15817;42.130;24.762;2022-10-01T00:29:03;11.50;;;5.32;;
28629;SDS011;15817;42.130;24.762;2022-10-01T00:31:31;14.13;;;5.47;;
28629;SDS011;15817;42.130;24.762;2022-10-01T00:34:00;12.98;;;4.72;;
28629;SDS011;15817;42.130;24.762;2022-10-01T00:36:29;13.60;;;5.32;;
28629;SDS011;15817;42.130;24.762;2022-10-01T00:38:56;8.38;;;4.72;;
28629;SDS011;15817;42.130;24.762;2022-10-01T00:41:27;14.35;;;5.10;;
28629;SDS011;15817;42.130;24.762;2022-10-01T00:44:01;9.95;;;4.70;;
28629;SDS011;15817;42.130;24.762;2022-10-01T00:46:47;20.15;;;5.05;;
28629;SDS011;15817;42.130;24.762;2022-10-01T00:49:14;11.88;;;4.88;;
28629;SDS011;15817;42.130;24.762;2022-10-01T00:51:46;9.75;;;4.50;;
28629;SDS011;15817;42.130;24.762;2022-10-01T00:57:02;9.68;;;4.50;;
28629;SDS011;15817;42.130;24.762;2022-10-01T00:59:30;18.40;;;5.80;;
28629;SDS011;15817;42.130;24.762;2022-10-01T01:01:57;10.25;;;4.88;;
28629;SDS011;15817;42.130;24.762;2022-10-01T01:04:23;12.55;;;4.80;;
28629;SDS011;15817;42.130;24.762;2022-10-01T01:06:49;12.30;;;4.47;;
28629;SDS011;15817;42.130;24.762;2022-10-01T01:09:22;15.40;;;4.65;;
28629;SDS011;15817;42.130;24.762;2022-10-01T01:14:39;5.60;;;3.85;;
28629;SDS011;15817;42.130;24.762;2022-10-01T01:17:14;12.00;;;4.38;;
28629;SDS011;15817;42.130;24.762;2022-10-01T01:22:25;8.25;;;3.60;;
28629;SDS011;15817;42.130;24.762;2022-10-01T01:25:07;5.18;;;2.92;;
28629;SDS011;15817;42.130;24.762;2022-10-01T01:28:30;5.88;;;3.13;;
28629;SDS011;15817;42.130;24.762;2022-10-01T01:30:33;4.13;;;3.10;;
28629;SDS011;15817;42.130;24.762;2022-10-01T01:33:03;6.53;;;3.00;;
28629;SDS011;15817;42.130;24.762;2022-10-01T01:38:44;6.53;;;3.33;;
28629;SDS011;15817;42.130;24.762;2022-10-01T01:41:16;4.07;;;3.08;;
28629;SDS011;15817;42.130;24.762;2022-10-01T01:43:44;8.38;;;3.35;;
28629;SDS011;15817;42.130;24.762;2022-10-01T01:46:15;7.72;;;3.30;;
28629;SDS011;15817;42.130;24.762;2022-10-01T01:48:43;6.85;;;3.50;;
28629;SDS011;15817;42.130;24.762;2022-10-01T01:51:23;7.75;;;4.15;;
28629;SDS011;15817;42.130;24.762;2022-10-01T01:53:57;10.50;;;4.38;;
28629;SDS011;15817;42.130;24.762;2022-10-01T01:56:23;7.18;;;4.40;;
28629;SDS011;15817;42.130;24.762;2022-10-01T01:58:49;10.65;;;4.35;;
28629;SDS011;15817;42.130;24.762;2022-10-01T02:01:37;11.27;;;4.72;;
28629;SDS011;15817;42.130;24.762;2022-10-01T02:04:16;13.02;;;4.57;;
28629;SDS011;15817;42.130;24.762;2022-10-01T02:09:25;10.77;;;4.93;;
28629;SDS011;15817;42.130;24.762;2022-10-01T02:14:34;11.77;;;5.32;;
28629;SDS011;15817;42.130;24.762;2022-10-01T02:17:14;16.10;;;5.03;;
28629;SDS011;15817;42.130;24.762;2022-10-01T02:20:00;19.83;;;5.35;;
28629;SDS011;15817;42.130;24.762;2022-10-01T02:25:02;13.05;;;4.97;;
28629;SDS011;15817;42.130;24.762;2022-10-01T02:27:33;12.10;;;4.95;;
28629;SDS011;15817;42.130;24.762;2022-10-01T02:30:06;10.95;;;4.80;;
28629;SDS011;15817;42.130;24.762;2022-10-01T02:32:35;9.73;;;4.63;;
28629;SDS011;15817;42.130;24.762;2022-10-01T02:35:07;11.15;;;4.60;;
28629;SDS011;15817;42.130;24.762;2022-10-01T02:37:37;8.13;;;3.88;;
28629;SDS011;15817;42.130;24.762;2022-10-01T02:40:05;9.40;;;4.22;;
28629;SDS011;15817;42.130;24.762;2022-10-01T02:42:38;12.50;;;4.03;;
28629;SDS011;15817;42.130;24.762;2022-10-01T02:45:10;9.82;;;3.75;;
28629;SDS011;15817;42.130;24.762;2022-10-01T02:47:44;8.95;;;4.05;;
28629;SDS011;15817;42.130;24.762;2022-10-01T02:50:15;7.15;;;3.42;;
28629;SDS011;15817;42.130;24.762;2022-10-01T02:52:44;6.93;;;3.78;;
28629;SDS011;15817;42.130;24.762;2022-10-01T02:55:18;8.02;;;3.50;;
28629;SDS011;15817;42.130;24.762;2022-10-01T02:57:48;8.20;;;3.72;;
28629;SDS011;15817;42.130;24.762;2022-10-01T03:00:15;5.78;;;3.50;;
28629;SDS011;15817;42.130;24.762;2022-10-01T03:02:45;6.32;;;3.88;;
28629;SDS011;15817;42.130;24.762;2022-10-01T03:05:12;9.07;;;3.97;;
28629;SDS011;15817;42.130;24.762;2022-10-01T03:07:38;10.73;;;3.95;;
28629;SDS011;15817;42.130;24.762;2022-10-01T03:10:05;10.10;;;3.72;;
28629;SDS011;15817;42.130;24.762;2022-10-01T03:12:33;16.83;;;4.40;;
28629;SDS011;15817;42.130;24.762;2022-10-01T03:14:59;10.10;;;4.47;;
28629;SDS011;15817;42.130;24.762;2022-10-01T03:17:25;8.95;;;3.90;;
28629;SDS011;15817;42.130;24.762;2022-10-01T03:19:51;18.90;;;5.13;;
28629;SDS011;15817;42.130;24.762;2022-10-01T03:22:19;10.90;;;4.85;;
28629;SDS011;15817;42.130;24.762;2022-10-01T03:24:51;12.23;;;5.63;;
28629;SDS011;15817;42.130;24.762;2022-10-01T03:27:21;20.13;;;6.47;;
28629;SDS011;15817;42.130;24.762;2022-10-01T03:29:47;15.60;;;4.45;;
28629;SDS011;15817;42.130;24.762;2022-10-01T03:32:13;13.90;;;5.68;;
28629;SDS011;15817;42.130;24.762;2022-10-01T03:34:39;9.63;;;5.13;;
28629;SDS011;15817;42.130;24.762;2022-10-01T03:37:05;11.73;;;4.38;;
28629;SDS011;15817;42.130;24.762;2022-10-01T03:39:31;10.48;;;4.07;;
28629;SDS011;15817;42.130;24.762;2022-10-01T03:41:57;8.85;;;4.03;;
28629;SDS011;15817;42.130;24.762;2022-10-01T03:44:29;5.47;;;3.65;;
28629;SDS011;15817;42.130;24.762;2022-10-01T03:46:55;7.97;;;4.05;;
28629;SDS011;15817;42.130;24.762;2022-10-01T03:49:20;8.88;;;3.33;;
28629;SDS011;15817;42.130;24.762;2022-10-01T03:51:46;8.43;;;3.78;;
28629;SDS011;15817;42.130;24.762;2022-10-01T03:54:11;7.50;;;3.88;;
28629;SDS011;15817;42.130;24.762;2022-10-01T03:56:37;8.77;;;3.85;;
28629;SDS011;15817;42.130;24.762;2022-10-01T03:59:07;6.72;;;4.20;;
28629;SDS011;15817;42.130;24.762;2022-10-01T04:01:35;7.82;;;3.45;;
28629;SDS011;15817;42.130;24.762;2022-10-01T04:04:01;8.05;;;3.58;;
28629;SDS011;15817;42.130;24.762;2022-10-01T04:06:27;7.40;;;3.30;;
28629;SDS011;15817;42.130;24.762;2022-10-01T04:08:53;10.30;;;3.70;;
28629;SDS011;15817;42.130;24.762;2022-10-01T04:11:19;6.95;;;3.72;;
28629;SDS011;15817;42.130;24.762;2022-10-01T04:13:45;9.00;;;3.47;;
28629;SDS011;15817;42.130;24.762;2022-10-01T04:16:11;9.48;;;3.90;;
28629;SDS011;15817;42.130;24.762;2022-10-01T04:18:37;5.50;;;3.40;;
28629;SDS011;15817;42.130;24.762;2022-10-01T04:21:03;5.88;;;3.35;;
28629;SDS011;15817;42.130;24.762;2022-10-01T04:23:29;5.70;;;3.50;;
28629;SDS011;15817;42.130;24.762;2022-10-01T04:25:59;6.68;;;4.85;;
28629;SDS011;15817;42.130;24.762;2022-10-01T04:28:26;5.88;;;4.00;;
28629;SDS011;15817;42.130;24.762;2022-10-01T04:30:53;6.47;;;3.58;;
28629;SDS011;15817;42.130;24.762;2022-10-01T04:33:38;6.13;;;3.72;;
28629;SDS011;15817;42.130;24.762;2022-10-01T04:36:12;7.45;;;3.40;;
28629;SDS011;15817;42.130;24.762;2022-10-01T04:38:52;7.75;;;4.05;;
28629;SDS011;15817;42.130;24.762;2022-10-01T04:41:24;10.63;;;3.90;;
28629;SDS011;15817;42.130;24.762;2022-10-01T04:43:51;7.05;;;3.78;;
28629;SDS011;15817;42.130;24.762;2022-10-01T04:46:17;5.63;;;3.45;;
28629;SDS011;15817;42.130;24.762;2022-10-01T04:48:42;8.70;;;4.00;;
28629;SDS011;15817;42.130;24.762;2022-10-01T04:51:08;12.25;;;4.13;;
28629;SDS011;15817;42.130;24.762;2022-10-01T04:53:34;9.43;;;3.85;;
28629;SDS011;15817;42.130;24.762;2022-10-01T04:56:08;12.85;;;4.25;;
28629;SDS011;15817;42.130;24.762;2022-10-01T04:58:34;8.90;;;4.25;;
28629;SDS011;15817;42.130;24.762;2022-10-01T05:01:00;11.70;;;4.80;;
28629;SDS011;15817;42.130;24.762;2022-10-01T05:03:29;11.75;;;4.85;;
28629;SDS011;15817;42.130;24.762;2022-10-01T05:05:55;13.30;;;4.45;;
28629;SDS011;15817;42.130;24.762;2022-10-01T05:08:21;11.95;;;4.25;;
28629;SDS011;15817;42.130;24.762;2022-10-01T05:10:51;13.35;;;4.10;;
28629;SDS011;15817;42.130;24.762;2022-10-01T05:13:17;9.63;;;4.63;;
28629;SDS011;15817;42.130;24.762;2022-10-01T05:15:42;9.27;;;3.90;;
28629;SDS011;15817;42.130;24.762;2022-10-01T05:18:09;7.40;;;3.70;;
28629;SDS011;15817;42.130;24.762;2022-10-01T05:20:40;8.65;;;3.75;;
28629;SDS011;15817;42.130;24.762;2022-10-01T05:23:06;8.48;;;3.92;;
28629;SDS011;15817;42.130;24.762;2022-10-01T05:25:32;9.70;;;3.97;;
28629;SDS011;15817;42.130;24.762;2022-10-01T05:28:01;12.20;;;3.97;;
28629;SDS011;15817;42.130;24.762;2022-10-01T05:30:31;12.45;;;4.53;;
28629;SDS011;15817;42.130;24.762;2022-10-01T05:33:01;8.63;;;3.95;;
28629;SDS011;15817;42.130;24.762;2022-10-01T05:35:29;10.52;;;4.13;;
28629;SDS011;15817;42.130;24.762;2022-10-01T05:37:55;10.60;;;4.38;;
28629;SDS011;15817;42.130;24.762;2022-10-01T05:40:23;9.40;;;4.32;;
28629;SDS011;15817;42.130;24.762;2022-10-01T05:42:55;11.20;;;3.67;;
28629;SDS011;15817;42.130;24.762;2022-10-01T05:45:22;10.70;;;4.28;;
28629;SDS011;15817;42.130;24.762;2022-10-01T05:47:56;8.18;;;4.43;;
28629;SDS011;15817;42.130;24.762;2022-10-01T05:50:23;10.73;;;4.57;;
28629;SDS011;15817;42.130;24.762;2022-10-01T05:52:50;9.45;;;4.30;;
28629;SDS011;15817;42.130;24.762;2022-10-01T05:55:18;12.02;;;4.95;;
28629;SDS011;15817;42.130;24.762;2022-10-01T05:57:43;15.10;;;4.90;;
28629;SDS011;15817;42.130;24.762;2022-10-01T06:00:09;11.35;;;4.30;;
28629;SDS011;15817;42.130;24.762;2022-10-01T06:02:37;8.10;;;4.18;;
28629;SDS011;15817;42.130;24.762;2022-10-01T06:05:03;8.60;;;4.15;;
28629;SDS011;15817;42.130;24.762;2022-10-01T06:10:57;6.70;;;3.63;;
28629;SDS011;15817;42.130;24.762;2022-10-01T06:13:29;12.25;;;4.45;;
28629;SDS011;15817;42.130;24.762;2022-10-01T06:15:59;15.50;;;4.05;;
28629;SDS011;15817;42.130;24.762;2022-10-01T06:18:39;10.18;;;4.22;;
28629;SDS011;15817;42.130;24.762;2022-10-01T06:21:09;11.73;;;3.85;;
28629;SDS011;15817;42.130;24.762;2022-10-01T06:23:37;12.05;;;4.55;;
28629;SDS011;15817;42.130;24.762;2022-10-01T06:26:23;9.10;;;4.38;;
28629;SDS011;15817;42.130;24.762;2022-10-01T06:28:49;17.65;;;4.13;;
28629;SDS011;15817;42.130;24.762;2022-10-01T06:31:18;7.43;;;3.80;;
28629;SDS011;15817;42.130;24.762;2022-10-01T06:33:45;9.18;;;3.53;;
28629;SDS011;15817;42.130;24.762;2022-10-01T06:36:14;9.68;;;4.05;;
28629;SDS011;15817;42.130;24.762;2022-10-01T06:38:39;11.73;;;3.70;;
28629;SDS011;15817;42.130;24.762;2022-10-01T06:41:05;7.70;;;3.90;;
28629;SDS011;15817;42.130;24.762;2022-10-01T06:43:31;7.28;;;4.15;;
28629;SDS011;15817;42.130;24.762;2022-10-01T06:46:00;10.73;;;3.50;;
28629;SDS011;15817;42.130;24.762;2022-10-01T06:48:27;6.50;;;3.30;;
28629;SDS011;15817;42.130;24.762;2022-10-01T06:50:55;6.85;;;3.78;;
28629;SDS011;15817;42.130;24.762;2022-10-01T06:53:22;7.43;;;4.25;;
28629;SDS011;15817;42.130;24.762;2022-10-01T06:55:47;6.13;;;3.75;;
28629;SDS011;15817;42.130;24.762;2022-10-01T06:58:21;13.15;;;4.90;;
28629;SDS011;15817;42.130;24.762;2022-10-01T07:00:50;9.30;;;3.40;;
28629;SDS011;15817;42.130;24.762;2022-10-01T07:03:17;7.80;;;3.65;;
28629;SDS011;15817;42.130;24.762;2022-10-01T07:05:45;14.43;;;4.70;;
28629;SDS011;15817;42.130;24.762;2022-10-01T07:08:10;9.80;;;5.10;;
28629;SDS011;15817;42.130;24.762;2022-10-01T07:10:37;11.80;;;3.72;;
28629;SDS011;15817;42.130;24.762;2022-10-01T07:15:32;11.23;;;3.75;;
28629;SDS011;15817;42.130;24.762;2022-10-01T07:17:58;9.35;;;3.67;;
28629;SDS011;15817;42.130;24.762;2022-10-01T07:20:24;15.65;;;3.88;;
28629;SDS011;15817;42.130;24.762;2022-10-01T07:22:55;9.82;;;4.03;;
28629;SDS011;15817;42.130;24.762;2022-10-01T07:25:22;8.75;;;3.67;;
28629;SDS011;15817;42.130;24.762;2022-10-01T07:27:52;11.40;;;3.58;;
28629;SDS011;15817;42.130;24.762;2022-10-01T07:30:19;10.25;;;3.50;;
28629;SDS011;15817;42.130;24.762;2022-10-01T07:32:46;7.78;;;3.75;;
28629;SDS011;15817;42.130;24.762;2022-10-01T07:35:11;8.65;;;3.63;;
28629;SDS011;15817;42.130;24.762;2022-10-01T07:37:37;9.80;;;3.50;;
28629;SDS011;15817;42.130;24.762;2022-10-01T07:40:03;7.68;;;3.22;;
28629;SDS011;15817;42.130;24.762;2022-10-01T07:42:29;8.60;;;3.45;;
28629;SDS011;15817;42.130;24.762;2022-10-01T07:44:58;6.07;;;3.28;;
28629;SDS011;15817;42.130;24.762;2022-10-01T07:47:23;11.68;;;3.20;;
28629;SDS011;15817;42.130;24.762;2022-10-01T07:49:49;13.18;;;4.43;;
28629;SDS011;15817;42.130;24.762;2022-10-01T07:52:15;6.00;;;3.20;;
28629;SDS011;15817;42.130;24.762;2022-10-01T07:54:40;11.70;;;3.72;;
28629;SDS011;15817;42.130;24.762;2022-10-01T07:57:06;15.77;;;4.07;;
28629;SDS011;15817;42.130;24.762;2022-10-01T07:59:32;9.20;;;4.40;;
28629;SDS011;15817;42.130;24.762;2022-10-01T08:01:58;12.60;;;5.85;;
28629;SDS011;15817;42.130;24.762;2022-10-01T08:04:25;8.15;;;3.72;;
28629;SDS011;15817;42.130;24.762;2022-10-01T08:07:09;9.15;;;3.40;;
28629;SDS011;15817;42.130;24.762;2022-10-01T08:09:34;7.43;;;3.53;;
28629;SDS011;15817;42.130;24.762;2022-10-01T08:12:00;6.72;;;3.10;;
28629;SDS011;15817;42.130;24.762;2022-10-01T08:14:27;12.32;;;3.35;;
28629;SDS011;15817;42.130;24.762;2022-10-01T08:16:54;9.82;;;3.17;;
28629;SDS011;15817;42.130;24.762;2022-10-01T08:19:23;9.27;;;3.30;;
28629;SDS011;15817;42.130;24.762;2022-10-01T08:21:49;5.78;;;3.53;;
28629;SDS011;15817;42.130;24.762;2022-10-01T08:24:15;11.10;;;3.05;;
28629;SDS011;15817;42.130;24.762;2022-10-01T08:26:44;4.72;;;3.08;;
28629;SDS011;15817;42.130;24.762;2022-10-01T08:29:15;7.90;;;3.13;;
28629;SDS011;15817;42.130;24.762;2022-10-01T08:31:40;4.63;;;2.92;;
28629;SDS011;15817;42.130;24.762;2022-10-01T08:34:06;6.45;;;3.22;;
28629;SDS011;15817;42.130;24.762;2022-10-01T08:36:43;6.40;;;2.47;;
28629;SDS011;15817;42.130;24.762;2022-10-01T08:39:28;10.48;;;3.75;;
28629;SDS011;15817;42.130;24.762;2022-10-01T08:44:37;4.95;;;2.70;;
28629;SDS011;15817;42.130;24.762;2022-10-01T08:47:10;7.13;;;3.85;;
28629;SDS011;15817;42.130;24.762;2022-10-01T08:49:42;6.78;;;2.92;;
28629;SDS011;15817;42.130;24.762;2022-10-01T08:52:16;6.97;;;3.00;;
28629;SDS011;15817;42.130;24.762;2022-10-01T08:54:45;3.95;;;2.90;;
28629;SDS011;15817;42.130;24.762;2022-10-01T08:57:21;5.40;;;2.92;;
28629;SDS011;15817;42.130;24.762;2022-10-01T08:59:57;4.30;;;3.67;;
28629;SDS011;15817;42.130;24.762;2022-10-01T09:02:31;7.10;;;3.58;;
28629;SDS011;15817;42.130;24.762;2022-10-01T09:05:04;8.15;;;3.67;;
28629;SDS011;15817;42.130;24.762;2022-10-01T09:18:29;10.07;;;3.65;;
28629;SDS011;15817;42.130;24.762;2022-10-01T09:21:17;7.55;;;3.55;;
28629;SDS011;15817;42.130;24.762;2022-10-01T09:24:02;9.85;;;4.03;;
28629;SDS011;15817;42.130;24.762;2022-10-01T09:26:36;6.97;;;3.35;;
28629;SDS011;15817;42.130;24.762;2022-10-01T09:29:10;7.97;;;3.40;;
28629;SDS011;15817;42.130;24.762;2022-10-01T09:31:44;17.30;;;3.92;;
28629;SDS011;15817;42.130;24.762;2022-10-01T09:34:49;10.35;;;3.45;;
28629;SDS011;15817;42.130;24.762;2022-10-01T09:37:28;9.93;;;3.53;;
28629;SDS011;15817;42.130;24.762;2022-10-01T09:42:47;9.45;;;3.85;;
28629;SDS011;15817;42.130;24.762;2022-10-01T09:45:13;12.75;;;3.35;;
28629;SDS011;15817;42.130;24.762;2022-10-01T09:47:40;7.43;;;3.20;;
28629;SDS011;15817;42.130;24.762;2022-10-01T09:50:11;11.60;;;3.80;;
28629;SDS011;15817;42.130;24.762;2022-10-01T09:52:42;9.27;;;3.75;;
28629;SDS011;15817;42.130;24.762;2022-10-01T09:58:33;12.57;;;3.55;;
28629;SDS011;15817;42.130;24.762;2022-10-01T10:01:00;8.90;;;3.67;;
28629;SDS011;15817;42.130;24.762;2022-10-01T10:03:30;14.13;;;4.03;;
28629;SDS011;15817;42.130;24.762;2022-10-01T10:05:56;10.90;;;3.78;;
28629;SDS011;15817;42.130;24.762;2022-10-01T10:08:32;6.05;;;3.47;;
28629;SDS011;15817;42.130;24.762;2022-10-01T10:11:09;7.00;;;3.72;;
28629;SDS011;15817;42.130;24.762;2022-10-01T10:13:48;13.45;;;3.90;;
28629;SDS011;15817;42.130;24.762;2022-10-01T10:16:24;15.60;;;4.13;;
28629;SDS011;15817;42.130;24.762;2022-10-01T10:18:57;9.90;;;4.05;;
28629;SDS011;15817;42.130;24.762;2022-10-01T10:21:34;6.78;;;3.47;;
28629;SDS011;15817;42.130;24.762;2022-10-01T10:24:06;5.75;;;3.70;;
28629;SDS011;15817;42.130;24.762;2022-10-01T10:26:51;11.95;;;3.45;;
28629;SDS011;15817;42.130;24.762;2022-10-01T10:29:29;25.10;;;6.03;;
28629;SDS011;15817;42.130;24.762;2022-10-01T10:31:56;8.23;;;4.53;;
28629;SDS011;15817;42.130;24.762;2022-10-01T10:34:27;15.27;;;4.30;;
28629;SDS011;15817;42.130;24.762;2022-10-01T10:36:57;11.55;;;4.18;;
28629;SDS011;15817;42.130;24.762;2022-10-01T10:39:30;8.52;;;3.45;;
28629;SDS011;15817;42.130;24.762;2022-10-01T10:41:59;6.68;;;3.70;;
28629;SDS011;15817;42.130;24.762;2022-10-01T10:44:30;14.63;;;5.00;;
28629;SDS011;15817;42.130;24.762;2022-10-01T10:52:26;16.45;;;8.13;;
28629;SDS011;15817;42.130;24.762;2022-10-01T10:54:54;14.63;;;7.75;;
28629;SDS011;15817;42.130;24.762;2022-10-01T10:57:26;18.30;;;8.32;;
28629;SDS011;15817;42.130;24.762;2022-10-01T11:00:15;17.27;;;8.68;;
28629;SDS011;15817;42.130;24.762;2022-10-01T11:02:48;14.80;;;7.05;;
28629;SDS011;15817;42.130;24.762;2022-10-01T11:05:24;11.55;;;5.43;;
28629;SDS011;15817;42.130;24.762;2022-10-01T11:08:03;15.18;;;10.10;;
28629;SDS011;15817;42.130;24.762;2022-10-01T11:13:43;11.48;;;4.55;;
28629;SDS011;15817;42.130;24.762;2022-10-01T11:19:39;11.75;;;4.53;;
28629;SDS011;15817;42.130;24.762;2022-10-01T11:22:38;8.65;;;4.47;;
28629;SDS011;15817;42.130;24.762;2022-10-01T11:25:25;14.15;;;4.35;;
28629;SDS011;15817;42.130;24.762;2022-10-01T11:30:57;10.40;;;4.88;;
28629;SDS011;15817;42.130;24.762;2022-10-01T11:36:04;9.52;;;3.97;;
28629;SDS011;15817;42.130;24.762;2022-10-01T11:38:40;6.45;;;4.70;;
28629;SDS011;15817;42.130;24.762;2022-10-01T11:41:21;8.05;;;4.43;;
28629;SDS011;15817;42.130;24.762;2022-10-01T11:55:55;10.75;;;4.93;;
28629;SDS011;15817;42.130;24.762;2022-10-01T12:01:50;9.35;;;5.20;;
28629;SDS011;15817;42.130;24.762;2022-10-01T12:06:47;13.90;;;5.75;;
28629;SDS011;15817;42.130;24.762;2022-10-01T12:12:36;12.13;;;5.70;;
28629;SDS011;15817;42.130;24.762;2022-10-01T12:17:57;12.18;;;5.78;;
28629;SDS011;15817;42.130;24.762;2022-10-01T12:20:49;16.73;;;6.30;;
28629;SDS011;15817;42.130;24.762;2022-10-01T12:23:21;10.15;;;5.90;;
28629;SDS011;15817;42.130;24.762;2022-10-01T12:28:21;8.52;;;5.88;;
28629;SDS011;15817;42.130;24.762;2022-10-01T12:31:21;8.43;;;5.50;;
28629;SDS011;15817;42.130;24.762;2022-10-01T12:34:00;16.98;;;5.63;;
28629;SDS011;15817;42.130;24.762;2022-10-01T12:36:53;15.48;;;7.28;;
28629;SDS011;15817;42.130;24.762;2022-10-01T12:52:49;8.23;;;5.40;;
28629;SDS011;15817;42.130;24.762;2022-10-01T12:55:53;16.23;;;5.63;;
28629;SDS011;15817;42.130;24.762;2022-10-01T12:58:31;8.48;;;5.40;;
28629;SDS011;15817;42.130;24.762;2022-10-01T13:06:32;9.65;;;6.10;;
28629;SDS011;15817;42.130;24.762;2022-10-01T13:11:57;13.63;;;7.03;;
28629;SDS011;15817;42.130;24.762;2022-10-01T13:14:42;13.57;;;6.60;;
28629;SDS011;15817;42.130;24.762;2022-10-01T13:17:23;11.55;;;6.72;;
28629;SDS011;15817;42.130;24.762;2022-10-01T13:20:02;11.80;;;7.47;;
28629;SDS011;15817;42.130;24.762;2022-10-01T13:22:36;11.35;;;7.18;;
28629;SDS011;15817;42.130;24.762;2022-10-01T13:31:10;11.45;;;6.43;;
28629;SDS011;15817;42.130;24.762;2022-10-01T13:33:54;15.70;;;7.45;;
28629;SDS011;15817;42.130;24.762;2022-10-01T13:36:31;8.85;;;6.88;;
28629;SDS011;15817;42.130;24.762;2022-10-01T13:38:59;11.85;;;7.72;;
28629;SDS011;15817;42.130;24.762;2022-10-01T13:41:29;16.23;;;7.55;;
28629;SDS011;15817;42.130;24.762;2022-10-01T13:46:34;9.02;;;6.13;;
28629;SDS011;15817;42.130;24.762;2022-10-01T13:49:32;8.65;;;5.78;;
28629;SDS011;15817;42.130;24.762;2022-10-01T13:52:00;9.55;;;5.40;;
28629;SDS011;15817;42.130;24.762;2022-10-01T13:54:44;8.85;;;5.20;;
28629;SDS011;15817;42.130;24.762;2022-10-01T13:59:58;10.35;;;5.82;;
28629;SDS011;15817;42.130;24.762;2022-10-01T14:05:33;10.60;;;5.57;;
28629;SDS011;15817;42.130;24.762;2022-10-01T14:08:24;6.38;;;4.97;;
28629;SDS011;15817;42.130;24.762;2022-10-01T14:11:00;8.35;;;5.03;;
28629;SDS011;15817;42.130;24.762;2022-10-01T14:13:51;7.90;;;4.53;;
28629;SDS011;15817;42.130;24.762;2022-10-01T14:16:41;7.57;;;4.55;;
28629;SDS011;15817;42.130;24.762;2022-10-01T14:19:16;8.50;;;4.55;;
28629;SDS011;15817;42.130;24.762;2022-10-01T14:24:22;8.18;;;4.85;;
28629;SDS011;15817;42.130;24.762;2022-10-01T14:27:01;11.45;;;8.02;;
28629;SDS011;15817;42.130;24.762;2022-10-01T14:32:40;10.90;;;5.65;;
28629;SDS011;15817;42.130;24.762;2022-10-01T14:35:30;10.32;;;6.15;;
28629;SDS011;15817;42.130;24.762;2022-10-01T14:37:59;9.80;;;5.25;;
28629;SDS011;15817;42.130;24.762;2022-10-01T14:41:03;7.82;;;4.97;;
28629;SDS011;15817;42.130;24.762;2022-10-01T14:43:23;11.68;;;5.05;;
28629;SDS011;15817;42.130;24.762;2022-10-01T14:45:57;9.63;;;5.80;;
28629;SDS011;15817;42.130;24.762;2022-10-01T14:48:25;11.70;;;5.30;;
28629;SDS011;15817;42.130;24.762;2022-10-01T14:50:53;13.93;;;5.57;;
28629;SDS011;15817;42.130;24.762;2022-10-01T14:53:22;11.00;;;4.50;;
28629;SDS011;15817;42.130;24.762;2022-10-01T14:55:53;9.63;;;4.95;;
28629;SDS011;15817;42.130;24.762;2022-10-01T14:58:22;13.70;;;4.93;;
28629;SDS011;15817;42.130;24.762;2022-10-01T15:00:53;8.82;;;5.00;;
28629;SDS011;15817;42.130;24.762;2022-10-01T15:03:21;11.80;;;5.25;;
28629;SDS011;15817;42.130;24.762;2022-10-01T15:05:49;9.52;;;5.18;;
28629;SDS011;15817;42.130;24.762;2022-10-01T15:08:22;12.38;;;4.82;;
28629;SDS011;15817;42.130;24.762;2022-10-01T15:11:05;7.85;;;4.70;;
28629;SDS011;15817;42.130;24.762;2022-10-01T15:13:35;12.25;;;4.90;;
28629;SDS011;15817;42.130;24.762;2022-10-01T15:16:26;11.35;;;4.90;;
28629;SDS011;15817;42.130;24.762;2022-10-01T15:19:06;15.52;;;4.60;;
28629;SDS011;15817;42.130;24.762;2022-10-01T15:21:37;15.52;;;5.20;;
28629;SDS011;15817;42.130;24.762;2022-10-01T15:26:57;9.43;;;5.45;;
28629;SDS011;15817;42.130;24.762;2022-10-01T15:29:23;10.43;;;5.13;;
28629;SDS011;15817;42.130;24.762;2022-10-01T15:31:50;11.55;;;5.82;;
28629;SDS011;15817;42.130;24.762;2022-10-01T15:34:20;10.80;;;5.68;;
28629;SDS011;15817;42.130;24.762;2022-10-01T15:36:48;26.52;;;7.85;;
28629;SDS011;15817;42.130;24.762;2022-10-01T15:41:43;32.05;;;9.85;;
28629;SDS011;15817;42.130;24.762;2022-10-01T15:58:07;21.02;;;11.93;;
28629;SDS011;15817;42.130;24.762;2022-10-01T16:06:03;22.02;;;10.27;;
28629;SDS011;15817;42.130;24.762;2022-10-01T16:08:34;19.55;;;10.57;;
28629;SDS011;15817;42.130;24.762;2022-10-01T16:11:15;20.40;;;9.57;;
28629;SDS011;15817;42.130;24.762;2022-10-01T16:13:44;15.80;;;9.93;;
28629;SDS011;15817;42.130;24.762;2022-10-01T16:18:53;22.00;;;10.45;;
28629;SDS011;15817;42.130;24.762;2022-10-01T16:21:59;20.20;;;10.73;;
28629;SDS011;15817;42.130;24.762;2022-10-01T16:24:44;20.13;;;10.55;;
28629;SDS011;15817;42.130;24.762;2022-10-01T16:27:17;25.10;;;11.98;;
28629;SDS011;15817;42.130;24.762;2022-10-01T16:29:51;18.27;;;10.95;;
28629;SDS011;15817;42.130;24.762;2022-10-01T16:32:33;24.15;;;11.18;;
28629;SDS011;15817;42.130;24.762;2022-10-01T16:35:19;18.75;;;11.00;;
28629;SDS011;15817;42.130;24.762;2022-10-01T16:37:46;21.80;;;11.38;;
28629;SDS011;15817;42.130;24.762;2022-10-01T16:40:20;18.70;;;10.35;;
28629;SDS011;15817;42.130;24.762;2022-10-01T16:42:48;23.38;;;10.73;;
28629;SDS011;15817;42.130;24.762;2022-10-01T16:45:16;21.83;;;11.40;;
28629;SDS011;15817;42.130;24.762;2022-10-01T16:47:44;21.73;;;10.88;;
28629;SDS011;15817;42.130;24.762;2022-10-01T16:50:11;25.13;;;11.07;;
28629;SDS011;15817;42.130;24.762;2022-10-01T16:52:39;24.50;;;11.30;;
28629;SDS011;15817;42.130;24.762;2022-10-01T16:55:10;22.20;;;11.07;;
28629;SDS011;15817;42.130;24.762;2022-10-01T16:57:42;20.05;;;11.45;;
28629;SDS011;15817;42.130;24.762;2022-10-01T17:00:08;25.15;;;11.32;;
28629;SDS011;15817;42.130;24.762;2022-10-01T17:02:37;21.42;;;11.18;;
28629;SDS011;15817;42.130;24.762;2022-10-01T17:05:03;19.45;;;12.23;;
28629;SDS011;15817;42.130;24.762;2022-10-01T17:11:11;23.65;;;11.93;;
28629;SDS011;15817;42.130;24.762;2022-10-01T17:13:51;19.45;;;12.18;;
28629;SDS011;15817;42.130;24.762;2022-10-01T17:16:20;24.73;;;12.07;;
28629;SDS011;15817;42.130;24.762;2022-10-01T17:18:46;20.98;;;12.18;;
28629;SDS011;15817;42.130;24.762;2022-10-01T17:21:12;20.27;;;12.23;;
28629;SDS011;15817;42.130;24.762;2022-10-01T17:23:49;23.55;;;12.65;;
28629;SDS011;15817;42.130;24.762;2022-10-01T17:26:16;20.10;;;12.80;;
28629;SDS011;15817;42.130;24.762;2022-10-01T17:28:41;21.77;;;11.57;;
28629;SDS011;15817;42.130;24.762;2022-10-01T17:31:07;23.58;;;13.93;;
28629;SDS011;15817;42.130;24.762;2022-10-01T17:37:43;27.10;;;13.95;;